KULM Airport (New Ulm Muni) Information

FAA: ULM - ICAO: KULM

KULM Airport Location

State Minnesota
County Brown
City New Ulm
KULM Airport is 2 miles west of New Ulm, MN.
Latitude 44-19-06.1920N
Longitude 094-30-05.9160W
Elevation 1,011ft

KULM Airport METARs

METAR KULM 181315Z AUTO 17012KT 10SM CLR M04/M06 A2957 RMK AO2
Altimeter 29.57"
Temperature -4.0°C (24.8°F)
Wind 170° at 12KT
Clouds Skies are clear.
Visibility 10.0mi
Time observed: 2022-01-18T13:15:00Z

KULM Airport Details

Status Operational
Activation September 1945
Ownership Public
Usage Public
Chart OMAHA
ATC on-site No
Beacon schedule sunset-sunrise
Beacon color clear green

KULM Airport Contacts

Owner CITY OF NEW ULM
Owner address 100 N BROADWAY, BOX 636, NEW ULM, MN 56073
Owner phone 507-359-8245
Manager JEFFERY A. TUMA
Manager address 11080 SHIELDSVILLE BLVD, MONTGOMERY, MN 56069
Manager phone 507-364-5628

KULM Airport (New Ulm Muni) Radio Frequencies

KULM (Airport) Radio Frequencies

UNICOM 122.8
Common traffic advisory frequency (CTAF) 122.8